createdAt,value
2022-08-11T00:00:12.489Z,0.00
2022-08-11T00:01:12.460Z,0.00
2022-08-11T00:02:15.054Z,0.00
2022-08-11T00:03:12.492Z,0.00
2022-08-11T00:04:12.409Z,0.00
2022-08-11T00:05:12.392Z,0.00
2022-08-11T00:06:12.372Z,0.00
2022-08-11T00:07:12.356Z,0.00
2022-08-11T00:08:12.339Z,0.00
2022-08-11T00:09:12.321Z,0.00
2022-08-11T00:10:12.303Z,0.00
2022-08-11T00:11:12.287Z,0.00
2022-08-11T00:12:12.267Z,0.00
2022-08-11T00:13:13.297Z,0.00
2022-08-11T00:14:12.231Z,0.00
2022-08-11T00:15:12.224Z,0.00
2022-08-11T00:16:12.196Z,0.00
2022-08-11T00:17:12.184Z,0.00
2022-08-11T00:18:12.163Z,0.00
2022-08-11T00:19:12.146Z,0.00
2022-08-11T00:20:16.211Z,0.00
2022-08-11T00:21:12.109Z,0.00
2022-08-11T00:22:12.091Z,0.00
2022-08-11T00:23:12.074Z,0.00
2022-08-11T00:24:12.056Z,0.00
2022-08-11T00:25:12.154Z,0.00
2022-08-11T00:26:12.021Z,0.00
2022-08-11T00:27:14.310Z,0.00
2022-08-11T00:28:11.989Z,0.00
2022-08-11T00:29:11.972Z,0.00
2022-08-11T00:30:11.955Z,0.00
2022-08-11T00:31:11.933Z,0.00
2022-08-11T00:32:11.914Z,0.00
2022-08-11T00:33:11.895Z,0.00
2022-08-11T00:34:11.879Z,0.00
2022-08-11T00:35:53.645Z,0.00
2022-08-11T00:36:11.843Z,0.00
2022-08-11T00:37:11.825Z,0.00
2022-08-11T00:38:11.807Z,0.00
2022-08-11T00:39:11.842Z,0.00
2022-08-11T00:40:11.771Z,0.00
2022-08-11T00:41:11.756Z,0.00
2022-08-11T00:42:11.737Z,0.00
2022-08-11T00:43:11.722Z,0.00
2022-08-11T00:44:11.700Z,0.00
2022-08-11T00:45:11.683Z,0.00
2022-08-11T00:46:11.673Z,0.00
2022-08-11T00:47:11.649Z,0.00
2022-08-11T00:48:11.630Z,0.00
2022-08-11T00:49:12.028Z,0.00
2022-08-11T00:50:11.622Z,0.00
2022-08-11T00:51:11.598Z,0.00
2022-08-11T00:52:11.559Z,0.00
2022-08-11T00:53:11.541Z,0.00
2022-08-11T00:54:11.523Z,0.00
2022-08-11T00:55:11.505Z,0.00
2022-08-11T00:56:11.488Z,0.00
2022-08-11T00:57:36.914Z,0.00
2022-08-11T00:58:11.450Z,0.00
2022-08-11T00:59:21.111Z,0.00
2022-08-11T01:00:11.416Z,0.00
2022-08-11T01:01:11.580Z,0.00
2022-08-11T01:02:11.380Z,0.00
2022-08-11T01:03:11.363Z,0.00
2022-08-11T01:04:11.345Z,0.00
2022-08-11T01:05:11.327Z,0.00
2022-08-11T01:06:11.309Z,0.00
2022-08-11T01:07:11.293Z,0.00
2022-08-11T01:08:11.272Z,0.00
2022-08-11T01:09:22.526Z,0.00
2022-08-11T01:10:11.236Z,0.00
2022-08-11T01:11:11.219Z,0.00
2022-08-11T01:12:11.202Z,0.00
2022-08-11T01:13:11.183Z,0.00
2022-08-11T01:14:11.166Z,0.00
2022-08-11T01:15:11.147Z,0.00
2022-08-11T01:16:11.128Z,0.00
2022-08-11T01:17:11.112Z,0.00
2022-08-11T01:18:11.098Z,0.00
2022-08-11T01:19:11.079Z,0.00
2022-08-11T01:20:46.775Z,0.00
2022-08-11T01:21:11.038Z,0.00
2022-08-11T01:22:11.025Z,0.00
2022-08-11T01:23:12.512Z,0.00
2022-08-11T01:24:10.997Z,0.00
2022-08-11T01:25:10.969Z,0.00
2022-08-11T01:26:10.951Z,0.00
2022-08-11T01:27:19.193Z,0.00
2022-08-11T01:28:10.914Z,0.00
2022-08-11T01:29:10.894Z,0.00
2022-08-11T01:30:10.879Z,0.00
2022-08-11T01:31:10.873Z,0.00
2022-08-11T01:32:10.847Z,0.00
2022-08-11T01:33:10.828Z,0.00
2022-08-11T01:34:10.807Z,0.00
2022-08-11T01:35:10.788Z,0.00
2022-08-11T01:36:10.768Z,0.00
2022-08-11T01:37:10.752Z,0.00
2022-08-11T01:38:10.731Z,0.00
2022-08-11T01:39:10.772Z,0.00
2022-08-11T01:40:10.700Z,0.00
2022-08-11T01:41:10.693Z,0.00
2022-08-11T01:42:10.659Z,0.00
2022-08-11T01:43:10.642Z,0.00
2022-08-11T01:44:12.668Z,0.00
2022-08-11T01:45:10.613Z,0.00
2022-08-11T01:46:10.587Z,0.00
2022-08-11T01:47:10.571Z,0.00
2022-08-11T01:48:10.549Z,0.00
2022-08-11T01:50:06.693Z,0.00
2022-08-11T01:50:10.846Z,0.00
2022-08-11T01:51:16.956Z,0.00
2022-08-11T01:52:10.478Z,0.00
2022-08-11T01:53:10.461Z,0.00
2022-08-11T01:54:10.443Z,0.00
2022-08-11T01:55:10.424Z,0.00
2022-08-11T01:56:10.404Z,0.00
2022-08-11T01:57:10.395Z,0.00
2022-08-11T01:58:10.368Z,0.00
2022-08-11T01:59:10.351Z,0.00
2022-08-11T02:00:10.331Z,0.00
2022-08-11T02:01:10.371Z,0.00
2022-08-11T02:02:10.298Z,0.00
2022-08-11T02:03:10.278Z,0.00
2022-08-11T02:04:10.263Z,0.00
2022-08-11T02:05:10.242Z,0.00
2022-08-11T02:06:10.222Z,0.00
2022-08-11T02:07:10.214Z,0.00
2022-08-11T02:08:10.193Z,0.00
2022-08-11T02:09:10.168Z,0.00
2022-08-11T02:10:10.151Z,0.00
2022-08-11T02:11:10.133Z,0.00
2022-08-11T02:12:10.117Z,0.00
2022-08-11T02:13:10.093Z,0.00
2022-08-11T02:14:10.076Z,0.00
2022-08-11T02:15:10.057Z,0.00
2022-08-11T02:16:10.036Z,0.00
2022-08-11T02:17:10.020Z,0.00
2022-08-11T02:18:09.999Z,0.00
2022-08-11T02:19:09.986Z,0.00
2022-08-11T02:20:09.966Z,0.00
2022-08-11T02:21:09.945Z,0.00
2022-08-11T02:22:09.929Z,0.00
2022-08-11T02:23:09.909Z,0.00
2022-08-11T02:24:09.890Z,0.00
2022-08-11T02:25:09.874Z,0.00
2022-08-11T02:26:09.853Z,0.00
2022-08-11T02:27:09.835Z,0.00
2022-08-11T02:28:09.815Z,0.00
2022-08-11T02:29:09.797Z,0.00
2022-08-11T02:30:09.783Z,0.00
2022-08-11T02:31:09.762Z,0.00
2022-08-11T02:32:25.126Z,0.00
2022-08-11T02:33:09.722Z,0.00
2022-08-11T02:34:09.706Z,0.00
2022-08-11T02:35:09.687Z,0.00
2022-08-11T02:36:09.667Z,0.00
2022-08-11T02:37:09.649Z,0.00
2022-08-11T02:38:09.631Z,0.00
2022-08-11T02:39:09.685Z,0.00
2022-08-11T02:40:09.594Z,0.00
2022-08-11T02:41:09.574Z,0.00
2022-08-11T02:42:32.604Z,0.00
2022-08-11T02:43:09.540Z,0.00
2022-08-11T02:44:09.521Z,0.00
2022-08-11T02:45:09.500Z,0.00
2022-08-11T02:46:09.481Z,0.00
2022-08-11T02:47:09.461Z,0.00
2022-08-11T02:48:09.441Z,0.00
2022-08-11T02:49:09.423Z,0.00
2022-08-11T02:50:09.404Z,0.00
2022-08-11T02:51:09.390Z,0.00
2022-08-11T02:52:09.369Z,0.00
2022-08-11T02:53:09.353Z,0.00
2022-08-11T02:54:09.329Z,0.00
2022-08-11T02:55:09.312Z,0.00
2022-08-11T02:56:09.289Z,0.00
2022-08-11T02:57:11.251Z,0.00
2022-08-11T02:58:09.253Z,0.00
2022-08-11T02:59:09.237Z,0.00
2022-08-11T03:00:09.219Z,0.00
2022-08-11T03:01:09.198Z,0.00
2022-08-11T03:02:09.226Z,0.00
2022-08-11T03:03:09.161Z,0.00
2022-08-11T03:04:09.140Z,0.00
2022-08-11T03:05:09.130Z,0.00
2022-08-11T03:06:09.111Z,0.00
2022-08-11T03:07:28.831Z,0.00
2022-08-11T03:08:09.057Z,0.00
2022-08-11T03:09:09.046Z,0.00
2022-08-11T03:10:09.025Z,0.00
2022-08-11T03:11:09.009Z,0.00
2022-08-11T03:12:08.992Z,0.00
2022-08-11T03:13:08.970Z,0.00
2022-08-11T03:14:08.951Z,0.00
2022-08-11T03:15:08.935Z,0.00
2022-08-11T03:16:08.918Z,0.00
2022-08-11T03:17:08.896Z,0.00
2022-08-11T03:18:08.883Z,0.00
2022-08-11T03:19:08.858Z,0.00
2022-08-11T03:20:08.840Z,0.00
2022-08-11T03:21:08.819Z,0.00
2022-08-11T03:22:08.800Z,0.00
2022-08-11T03:23:19.978Z,0.00
2022-08-11T03:24:08.763Z,0.00
2022-08-11T03:25:12.759Z,0.00
2022-08-11T03:26:08.727Z,0.00
2022-08-11T03:27:08.705Z,0.00
2022-08-11T03:28:08.686Z,0.00
2022-08-11T03:29:08.667Z,0.00
2022-08-11T03:30:08.648Z,0.00
2022-08-11T03:31:08.632Z,0.00
2022-08-11T03:32:08.614Z,0.00
2022-08-11T03:33:08.592Z,0.00
2022-08-11T03:34:08.572Z,0.00
2022-08-11T03:35:08.556Z,0.00
2022-08-11T03:36:08.539Z,0.00
2022-08-11T03:37:17.550Z,0.00
2022-08-11T03:38:08.497Z,0.00
2022-08-11T03:39:08.540Z,0.00
2022-08-11T03:40:08.507Z,0.00
2022-08-11T03:42:01.203Z,0.00
2022-08-11T03:42:10.258Z,0.00
2022-08-11T03:43:08.405Z,4.00
2022-08-11T03:44:08.382Z,0.00
2022-08-11T03:45:08.364Z,0.00
2022-08-11T03:46:08.347Z,0.00
2022-08-11T03:47:08.328Z,4.00
2022-08-11T03:48:08.315Z,4.00
2022-08-11T03:49:08.288Z,0.00
2022-08-11T03:50:08.277Z,4.00
2022-08-11T03:51:08.250Z,4.00
2022-08-11T03:52:08.231Z,0.00
2022-08-11T03:53:08.216Z,4.00
2022-08-11T03:54:08.191Z,0.00
2022-08-11T03:55:08.178Z,4.00
2022-08-11T03:56:08.155Z,4.00
2022-08-11T03:57:08.135Z,4.00
2022-08-11T03:58:08.116Z,4.00
2022-08-11T03:59:08.097Z,8.00
2022-08-11T04:00:08.079Z,8.00
2022-08-11T04:01:08.223Z,8.00
2022-08-11T04:02:08.039Z,8.00
2022-08-11T04:03:08.023Z,8.00
2022-08-11T04:04:08.006Z,8.00
2022-08-11T04:05:07.986Z,12.00
2022-08-11T04:06:07.964Z,12.00
2022-08-11T04:07:07.951Z,12.00
2022-08-11T04:08:07.927Z,12.00
2022-08-11T04:09:07.909Z,16.00
2022-08-11T04:10:07.892Z,20.00
2022-08-11T04:11:07.881Z,20.00
2022-08-11T04:12:07.854Z,20.00
2022-08-11T04:13:07.834Z,20.00
2022-08-11T04:14:07.815Z,24.00
2022-08-11T04:15:07.794Z,24.00
2022-08-11T04:16:11.312Z,24.00
2022-08-11T04:17:07.761Z,28.00
2022-08-11T04:18:07.740Z,28.00
2022-08-11T04:19:07.720Z,28.00
2022-08-11T04:20:07.701Z,32.00
2022-08-11T04:21:07.681Z,32.00
2022-08-11T04:22:07.661Z,36.00
2022-08-11T04:23:07.642Z,36.00
2022-08-11T04:24:36.903Z,40.00
2022-08-11T04:25:07.607Z,40.00
2022-08-11T04:26:16.203Z,44.00
2022-08-11T04:27:08.200Z,44.00
2022-08-11T04:28:07.551Z,44.00
2022-08-11T04:29:09.496Z,48.00
2022-08-11T04:30:08.923Z,48.00
2022-08-11T04:31:07.490Z,52.00
2022-08-11T04:32:07.473Z,52.00
2022-08-11T04:33:07.453Z,56.00
2022-08-11T04:34:07.435Z,56.00
2022-08-11T04:35:07.414Z,60.00
2022-08-11T04:36:07.398Z,64.00
2022-08-11T04:37:07.376Z,68.00
2022-08-11T04:38:07.358Z,64.00
2022-08-11T04:39:07.360Z,68.00
2022-08-11T04:40:07.327Z,68.00
2022-08-11T04:41:07.309Z,72.00
2022-08-11T04:42:07.283Z,72.00
2022-08-11T04:43:07.265Z,76.00
2022-08-11T04:44:07.249Z,80.00
2022-08-11T04:45:07.226Z,80.00
2022-08-11T04:46:07.209Z,80.00
2022-08-11T04:47:07.187Z,84.00
2022-08-11T04:48:07.170Z,88.00
2022-08-11T04:49:07.154Z,88.00
2022-08-11T04:50:07.131Z,92.00
2022-08-11T04:51:16.328Z,92.00
2022-08-11T04:52:07.092Z,96.00
2022-08-11T04:53:07.070Z,100.00
2022-08-11T04:54:07.055Z,100.00
2022-08-11T04:55:07.034Z,100.00
2022-08-11T04:56:07.020Z,104.00
2022-08-11T04:57:06.999Z,108.00
2022-08-11T04:58:06.979Z,108.00
2022-08-11T04:59:06.963Z,108.00
2022-08-11T05:00:06.940Z,112.00
2022-08-11T05:01:06.996Z,112.00
2022-08-11T05:02:06.950Z,116.00
2022-08-11T05:03:06.884Z,116.00
2022-08-11T05:04:06.864Z,120.00
2022-08-11T05:05:06.843Z,120.00
2022-08-11T05:06:06.826Z,124.00
2022-08-11T05:07:06.811Z,124.00
2022-08-11T05:08:06.790Z,128.00
2022-08-11T05:09:06.768Z,128.00
2022-08-11T05:10:06.751Z,132.00
2022-08-11T05:11:06.743Z,132.00
2022-08-11T05:12:06.712Z,132.00
2022-08-11T05:13:06.701Z,136.00
2022-08-11T05:14:06.675Z,140.00
2022-08-11T05:15:06.653Z,140.00
2022-08-11T05:16:06.637Z,140.00
2022-08-11T05:17:06.617Z,144.00
2022-08-11T05:18:06.598Z,144.00
2022-08-11T05:19:06.577Z,148.00
2022-08-11T05:20:06.562Z,148.00
2022-08-11T05:21:06.541Z,152.00
2022-08-11T05:22:06.525Z,152.00
2022-08-11T05:23:06.503Z,152.00
2022-08-11T05:24:06.491Z,156.00
2022-08-11T05:25:06.463Z,160.00
2022-08-11T05:26:43.828Z,156.00
2022-08-11T05:27:11.369Z,160.00
2022-08-11T05:28:06.407Z,176.00
2022-08-11T05:29:20.006Z,160.00
2022-08-11T05:30:06.374Z,168.00
2022-08-11T05:31:06.354Z,164.00
2022-08-11T05:32:06.336Z,164.00
2022-08-11T05:33:06.319Z,168.00
2022-08-11T05:34:06.296Z,168.00
2022-08-11T05:35:06.275Z,172.00
2022-08-11T05:36:06.258Z,172.00
2022-08-11T05:37:25.821Z,176.00
2022-08-11T05:38:06.224Z,176.00
2022-08-11T05:39:06.199Z,180.00
2022-08-11T05:40:06.281Z,180.00
2022-08-11T05:41:06.160Z,180.00
2022-08-11T05:42:06.152Z,180.00
2022-08-11T05:43:06.185Z,184.00
2022-08-11T05:44:21.113Z,184.00
2022-08-11T05:45:15.209Z,188.00
2022-08-11T05:46:09.028Z,192.00
2022-08-11T05:47:06.049Z,192.00
2022-08-11T05:48:06.036Z,192.00
2022-08-11T05:49:06.015Z,196.00
2022-08-11T05:50:05.994Z,196.00
2022-08-11T05:51:10.366Z,200.00
2022-08-11T05:52:12.822Z,200.00
2022-08-11T05:53:09.345Z,204.00
2022-08-11T05:54:05.919Z,204.00
2022-08-11T05:55:06.979Z,208.00
2022-08-11T05:56:05.881Z,208.00
2022-08-11T05:57:05.865Z,212.00
2022-08-11T05:58:05.843Z,216.00
2022-08-11T05:59:05.822Z,216.00
2022-08-11T06:00:05.809Z,220.00
2022-08-11T06:01:05.811Z,220.00
2022-08-11T06:02:05.910Z,224.00
2022-08-11T06:03:05.748Z,228.00
2022-08-11T06:04:05.732Z,232.00
2022-08-11T06:05:05.712Z,232.00
2022-08-11T06:06:05.699Z,236.00
2022-08-11T06:07:05.680Z,236.00
2022-08-11T06:08:05.661Z,240.00
2022-08-11T06:09:05.635Z,244.00
2022-08-11T06:10:05.619Z,244.00
2022-08-11T06:11:05.601Z,244.00
2022-08-11T06:12:05.594Z,244.00
2022-08-11T06:13:05.561Z,248.00
2022-08-11T06:14:05.545Z,252.00
2022-08-11T06:15:05.528Z,252.00
2022-08-11T06:16:07.114Z,252.00
2022-08-11T06:17:05.490Z,256.00
2022-08-11T06:18:05.473Z,260.00
2022-08-11T06:19:05.450Z,260.00
2022-08-11T06:20:07.176Z,264.00
2022-08-11T06:21:05.414Z,268.00
2022-08-11T06:22:05.421Z,272.00
2022-08-11T06:23:05.383Z,272.00
2022-08-11T06:24:05.377Z,276.00
2022-08-11T06:25:05.347Z,280.00
2022-08-11T06:26:05.339Z,284.00
2022-08-11T06:27:13.728Z,284.00
2022-08-11T06:28:05.288Z,288.00
2022-08-11T06:29:05.264Z,288.00
2022-08-11T06:30:05.247Z,292.00
2022-08-11T06:31:05.226Z,292.00
2022-08-11T06:32:05.215Z,296.00
2022-08-11T06:33:05.210Z,304.00
2022-08-11T06:34:05.174Z,300.00
2022-08-11T06:35:05.153Z,304.00
2022-08-11T06:36:05.138Z,308.00
2022-08-11T06:37:05.144Z,308.00
2022-08-11T06:38:05.101Z,308.00
2022-08-11T06:39:05.081Z,312.00
2022-08-11T06:40:05.063Z,316.00
2022-08-11T06:41:05.044Z,316.00
2022-08-11T06:42:05.028Z,320.00
2022-08-11T06:43:05.007Z,324.00
2022-08-11T06:44:05.600Z,328.00
2022-08-11T06:45:04.981Z,332.00
2022-08-11T06:46:04.954Z,336.00
2022-08-11T06:47:04.934Z,336.00
2022-08-11T06:48:04.917Z,340.00
2022-08-11T06:49:04.897Z,344.00
2022-08-11T06:50:04.884Z,348.00
2022-08-11T06:51:04.863Z,352.00
2022-08-11T06:52:04.924Z,356.00
2022-08-11T06:53:04.827Z,360.00
2022-08-11T06:54:05.807Z,364.00
2022-08-11T06:55:04.788Z,376.00
2022-08-11T06:56:04.774Z,384.00
2022-08-11T06:58:04.785Z,400.00
2022-08-11T06:59:04.713Z,408.00
2022-08-11T07:00:04.706Z,424.00
2022-08-11T07:01:04.765Z,436.00
2022-08-11T07:02:04.670Z,444.00
2022-08-11T07:03:04.640Z,452.00
2022-08-11T07:04:04.624Z,460.00
2022-08-11T07:05:04.620Z,464.00
2022-08-11T07:06:04.589Z,476.00
2022-08-11T07:07:04.569Z,484.00
2022-08-11T07:08:34.273Z,496.00
2022-08-11T07:09:04.530Z,508.00
2022-08-11T07:10:04.523Z,520.00
2022-08-11T07:11:04.493Z,536.00
2022-08-11T07:12:04.482Z,552.00
2022-08-11T07:13:04.469Z,568.00
2022-08-11T07:14:04.447Z,572.00
2022-08-11T07:15:04.423Z,608.00
2022-08-11T07:16:11.386Z,620.00
2022-08-11T07:17:04.386Z,636.00
2022-08-11T07:18:04.373Z,656.00
2022-08-11T07:19:04.351Z,668.00
2022-08-11T07:20:04.334Z,688.00
2022-08-11T07:21:04.315Z,708.00
2022-08-11T07:22:04.402Z,724.00
2022-08-11T07:23:04.283Z,744.00
2022-08-11T07:24:04.261Z,760.00
2022-08-11T07:25:04.250Z,776.00
2022-08-11T07:26:04.231Z,772.00
2022-08-11T07:27:04.209Z,804.00
2022-08-11T07:28:04.196Z,812.00
2022-08-11T07:29:04.172Z,820.00
2022-08-11T07:30:04.154Z,844.00
2022-08-11T07:31:04.137Z,868.00
2022-08-11T07:32:04.118Z,880.00
2022-08-11T07:33:04.103Z,904.00
2022-08-11T07:34:06.463Z,944.00
2022-08-11T07:35:04.063Z,964.00
2022-08-11T07:36:04.049Z,996.00
2022-08-11T07:37:04.035Z,1028.00
2022-08-11T07:38:05.662Z,1052.00
2022-08-11T07:39:03.993Z,1084.00
2022-08-11T07:40:03.986Z,1108.00
2022-08-11T07:41:03.956Z,1140.00
2022-08-11T07:42:03.940Z,1164.00
2022-08-11T07:43:03.926Z,1188.00
2022-08-11T07:44:03.909Z,1212.00
2022-08-11T07:45:03.887Z,1240.00
2022-08-11T07:46:03.869Z,1264.00
2022-08-11T07:47:03.853Z,1288.00
2022-08-11T07:48:03.836Z,1312.00
2022-08-11T07:49:03.865Z,1336.00
2022-08-11T07:50:03.802Z,1356.00
2022-08-11T07:51:03.791Z,1380.00
2022-08-11T07:52:03.765Z,1400.00
2022-08-11T07:53:03.749Z,1428.00
2022-08-11T07:54:07.731Z,1452.00
2022-08-11T07:55:03.713Z,1476.00
2022-08-11T07:56:03.698Z,1496.00
2022-08-11T07:57:09.120Z,1516.00
2022-08-11T07:58:16.663Z,1536.00
2022-08-11T07:59:08.248Z,1560.00
2022-08-11T08:00:05.074Z,1580.00
2022-08-11T08:01:03.709Z,1608.00
2022-08-11T08:02:03.734Z,1628.00
2022-08-11T08:03:03.575Z,1652.00
2022-08-11T08:04:03.562Z,1672.00
2022-08-11T08:05:03.542Z,1696.00
2022-08-11T08:06:03.527Z,1716.00
2022-08-11T08:07:03.514Z,1736.00
2022-08-11T08:08:03.498Z,1756.00
2022-08-11T08:09:03.475Z,1776.00
2022-08-11T08:10:03.466Z,1800.00
2022-08-11T08:11:03.454Z,1824.00
2022-08-11T08:12:03.433Z,1840.00
2022-08-11T08:13:03.409Z,1860.00
2022-08-11T08:14:03.402Z,1880.00
2022-08-11T08:15:03.376Z,1896.00
2022-08-11T08:16:03.372Z,1916.00
2022-08-11T08:17:03.352Z,1940.00
2022-08-11T08:18:20.921Z,1952.00
2022-08-11T08:19:03.309Z,1968.00
2022-08-11T08:20:03.295Z,1984.00
2022-08-11T08:21:03.281Z,2004.00
2022-08-11T08:22:37.433Z,2024.00
2022-08-11T08:23:03.243Z,2032.00
2022-08-11T08:24:03.229Z,2048.00
2022-08-11T08:25:03.215Z,2056.00
2022-08-11T08:26:03.200Z,2072.00
2022-08-11T08:27:03.187Z,2080.00
2022-08-11T08:28:03.165Z,2092.00
2022-08-11T08:29:03.151Z,2096.00
2022-08-11T08:30:03.130Z,2104.00
2022-08-11T08:31:03.114Z,2108.00
2022-08-11T08:32:03.099Z,2112.00
2022-08-11T08:33:03.082Z,2120.00
2022-08-11T08:34:03.068Z,2124.00
2022-08-11T08:35:03.051Z,2128.00
2022-08-11T08:36:03.036Z,2132.00
2022-08-11T08:37:03.021Z,2136.00
2022-08-11T08:38:03.002Z,2136.00
2022-08-11T08:39:02.990Z,2144.00
2022-08-11T08:40:02.975Z,2148.00
2022-08-11T08:41:02.956Z,2156.00
2022-08-11T08:42:02.939Z,2160.00
2022-08-11T08:43:02.924Z,2164.00
2022-08-11T08:44:27.817Z,2172.00
2022-08-11T08:45:02.916Z,2176.00
2022-08-11T08:46:02.875Z,2184.00
2022-08-11T08:47:02.861Z,2196.00
2022-08-11T08:48:02.846Z,2200.00
2022-08-11T08:49:02.829Z,2216.00
2022-08-11T08:50:02.814Z,2212.00
2022-08-11T08:51:02.801Z,2228.00
2022-08-11T08:52:29.655Z,2232.00
2022-08-11T08:53:02.766Z,2240.00
2022-08-11T08:54:02.749Z,2244.00
2022-08-11T08:55:02.736Z,2260.00
2022-08-11T08:56:02.720Z,2264.00
2022-08-11T08:57:02.705Z,2272.00
2022-08-11T08:58:02.688Z,2276.00
2022-08-11T08:59:02.675Z,2284.00
2022-08-11T09:00:02.658Z,2284.00
2022-08-11T09:01:02.675Z,2288.00
2022-08-11T09:02:02.627Z,2296.00
2022-08-11T09:03:17.199Z,2300.00
2022-08-11T09:04:10.567Z,2308.00
2022-08-11T09:05:02.590Z,2320.00
2022-08-11T09:06:02.566Z,2320.00
2022-08-11T09:07:02.556Z,2324.00
2022-08-11T09:08:02.539Z,2332.00
2022-08-11T09:09:02.523Z,2344.00
2022-08-11T09:10:02.505Z,2348.00
2022-08-11T09:11:02.492Z,2356.00
2022-08-11T09:12:02.475Z,2360.00
2022-08-11T09:13:02.461Z,2360.00
2022-08-11T09:14:03.295Z,2368.00
2022-08-11T09:15:02.438Z,2372.00
2022-08-11T09:16:02.418Z,2380.00
2022-08-11T09:17:02.403Z,2388.00
2022-08-11T09:18:02.388Z,2388.00
2022-08-11T09:19:02.373Z,2392.00
2022-08-11T09:20:02.447Z,2400.00
2022-08-11T09:21:02.342Z,2408.00
2022-08-11T09:22:02.328Z,2408.00
2022-08-11T09:24:06.738Z,2416.00
2022-08-11T09:25:02.283Z,2432.00
2022-08-11T09:26:02.271Z,2428.00
2022-08-11T09:27:02.253Z,2432.00
2022-08-11T09:28:02.239Z,2436.00
2022-08-11T09:29:02.223Z,2444.00
2022-08-11T09:30:02.208Z,2448.00
2022-08-11T09:31:02.208Z,2456.00
2022-08-11T09:32:02.186Z,2456.00
2022-08-11T09:33:02.169Z,2464.00
2022-08-11T09:34:02.149Z,2464.00
2022-08-11T09:35:02.137Z,2468.00
2022-08-11T09:36:02.122Z,2472.00
2022-08-11T09:37:02.107Z,2476.00
2022-08-11T09:38:02.680Z,2476.00
2022-08-11T09:39:02.079Z,2480.00
2022-08-11T09:40:02.076Z,2480.00
2022-08-11T09:41:02.048Z,2480.00
2022-08-11T09:42:03.498Z,2492.00
2022-08-11T09:43:02.021Z,2492.00
2022-08-11T09:44:04.157Z,2500.00
2022-08-11T09:45:02.101Z,2496.00
2022-08-11T09:46:01.980Z,2488.00
2022-08-11T09:47:01.966Z,2500.00
2022-08-11T09:48:01.951Z,2656.00
2022-08-11T09:49:01.937Z,2508.00
2022-08-11T09:50:02.157Z,2512.00
2022-08-11T09:51:01.907Z,2520.00
2022-08-11T09:52:05.144Z,2520.00
2022-08-11T09:53:34.775Z,2528.00
2022-08-11T09:54:03.520Z,2528.00
2022-08-11T09:55:01.852Z,2528.00
2022-08-11T09:56:01.836Z,2504.00
2022-08-11T09:57:05.186Z,2496.00
2022-08-11T09:58:01.805Z,2516.00
2022-08-11T09:59:01.806Z,2520.00
2022-08-11T10:00:12.648Z,2512.00
2022-08-11T10:01:01.856Z,2516.00
2022-08-11T10:02:01.751Z,2512.00
2022-08-11T10:03:01.740Z,2532.00
2022-08-11T10:04:01.721Z,2516.00
2022-08-11T10:05:01.713Z,2512.00
2022-08-11T10:06:07.307Z,2516.00
2022-08-11T10:07:01.683Z,2504.00
2022-08-11T10:08:01.669Z,2500.00
2022-08-11T10:09:01.659Z,2496.00
2022-08-11T10:10:01.640Z,2640.00
2022-08-11T10:11:01.627Z,2516.00
2022-08-11T10:12:01.609Z,2508.00
2022-08-11T10:13:01.610Z,2500.00
2022-08-11T10:14:33.922Z,2452.00
2022-08-11T10:15:01.568Z,2476.00
2022-08-11T10:16:16.309Z,2448.00
2022-08-11T10:17:01.540Z,2436.00
2022-08-11T10:18:01.529Z,2416.00
2022-08-11T10:19:01.515Z,2420.00
2022-08-11T10:20:04.782Z,2436.00
2022-08-11T10:21:01.487Z,2428.00
2022-08-11T10:22:01.468Z,2440.00
2022-08-11T10:23:01.459Z,2480.00
2022-08-11T10:24:05.746Z,2448.00
2022-08-11T10:25:01.430Z,2444.00
2022-08-11T10:26:01.416Z,2436.00
2022-08-11T10:27:01.406Z,2424.00
2022-08-11T10:28:28.517Z,2432.00
2022-08-11T10:29:12.552Z,2428.00
2022-08-11T10:30:01.365Z,2420.00
2022-08-11T10:31:01.350Z,2424.00
2022-08-11T10:32:02.076Z,2408.00
2022-08-11T10:33:01.320Z,2420.00
2022-08-11T10:34:01.632Z,2416.00
2022-08-11T10:35:01.303Z,2424.00
2022-08-11T10:36:01.282Z,2432.00
2022-08-11T10:37:01.265Z,2412.00
2022-08-11T10:38:08.587Z,2316.00
2022-08-11T10:39:01.236Z,2384.00
2022-08-11T10:40:01.220Z,2388.00
2022-08-11T10:41:01.210Z,2396.00
2022-08-11T10:42:06.111Z,2404.00
2022-08-11T10:43:01.492Z,2412.00
2022-08-11T10:44:03.697Z,2400.00
2022-08-11T10:45:01.158Z,2372.00
2022-08-11T10:46:01.141Z,2308.00
2022-08-11T10:47:01.126Z,2236.00
2022-08-11T10:48:01.113Z,2308.00
2022-08-11T10:49:01.105Z,2320.00
2022-08-11T10:50:01.089Z,2304.00
2022-08-11T10:51:01.075Z,2300.00
2022-08-11T10:52:01.067Z,2304.00
2022-08-11T10:53:01.046Z,2296.00
2022-08-11T10:54:01.034Z,2300.00
2022-08-11T10:55:01.022Z,2276.00
2022-08-11T10:56:01.030Z,2316.00
2022-08-11T10:57:00.989Z,2308.00
2022-08-11T10:58:04.313Z,2268.00
2022-08-11T10:59:03.990Z,2260.00
2022-08-11T11:00:00.950Z,2272.00
2022-08-11T11:01:00.982Z,2284.00
2022-08-11T11:02:00.926Z,2256.00
2022-08-11T11:03:16.846Z,2264.00
2022-08-11T11:04:00.907Z,2280.00
2022-08-11T11:05:00.883Z,2240.00
2022-08-11T11:06:27.849Z,2224.00
2022-08-11T11:07:00.855Z,2220.00
2022-08-11T11:08:00.844Z,2208.00
2022-08-11T11:09:04.069Z,2208.00
2022-08-11T11:10:00.814Z,2228.00
2022-08-11T11:11:00.801Z,2236.00
2022-08-11T11:12:00.795Z,2252.00
2022-08-11T11:13:00.784Z,2256.00
2022-08-11T11:14:00.766Z,2280.00
2022-08-11T11:15:00.747Z,2292.00
2022-08-11T11:16:00.737Z,2280.00
2022-08-11T11:17:00.724Z,2276.00
2022-08-11T11:18:00.709Z,2144.00
2022-08-11T11:19:01.453Z,2176.00
2022-08-11T11:20:00.682Z,2228.00
2022-08-11T11:21:00.677Z,2268.00
2022-08-11T11:22:00.654Z,2268.00
2022-08-11T11:23:00.646Z,2224.00
2022-08-11T11:24:00.630Z,2304.00
2022-08-11T11:25:00.627Z,2260.00
2022-08-11T11:26:00.606Z,2148.00
2022-08-11T11:27:00.591Z,2308.00
2022-08-11T11:28:00.586Z,2312.00
2022-08-11T11:29:00.568Z,2264.00
2022-08-11T11:30:00.553Z,2324.00
2022-08-11T11:31:00.546Z,2208.00
2022-08-11T11:32:00.526Z,2248.00
2022-08-11T11:33:00.521Z,2288.00
2022-08-11T11:34:12.383Z,2308.00
2022-08-11T11:35:00.488Z,2296.00
2022-08-11T11:36:00.477Z,2248.00
2022-08-11T11:37:00.468Z,2348.00
2022-08-11T11:38:04.031Z,2172.00
2022-08-11T11:39:00.436Z,2372.00
2022-08-11T11:40:00.428Z,2304.00
2022-08-11T11:41:00.412Z,2176.00
2022-08-11T11:42:00.398Z,2232.00
2022-08-11T11:43:00.406Z,2288.00
2022-08-11T11:44:01.494Z,2272.00
2022-08-11T11:45:01.439Z,2288.00
2022-08-11T11:46:00.355Z,2088.00
2022-08-11T11:47:00.338Z,2328.00
2022-08-11T11:48:00.322Z,2336.00
2022-08-11T11:49:00.310Z,2260.00
2022-08-11T11:50:00.300Z,2224.00
2022-08-11T11:51:00.295Z,2080.00
2022-08-11T11:52:00.276Z,2160.00
2022-08-11T11:53:00.264Z,2328.00
2022-08-11T11:54:00.250Z,2112.00
2022-08-11T11:55:00.247Z,2336.00
2022-08-11T11:56:00.227Z,2364.00
2022-08-11T11:57:00.216Z,2388.00
2022-08-11T11:58:02.624Z,2288.00
2022-08-11T11:59:00.194Z,2248.00
2022-08-11T12:00:00.207Z,2180.00
2022-08-11T12:01:00.170Z,2340.00
2022-08-11T12:02:00.156Z,2324.00
2022-08-11T12:03:00.238Z,2372.00
2022-08-11T12:04:00.136Z,2364.00
2022-08-11T12:05:00.121Z,2288.00
2022-08-11T12:06:00.108Z,2256.00
2022-08-11T12:07:00.099Z,2332.00
2022-08-11T12:08:12.475Z,2360.00
2022-08-11T12:09:00.082Z,2204.00
2022-08-11T12:10:00.073Z,2388.00
2022-08-11T12:11:00.050Z,2308.00
2022-08-11T12:12:00.042Z,2360.00
2022-08-11T12:13:00.026Z,2372.00
2022-08-11T12:14:00.013Z,2344.00
2022-08-11T12:15:00.003Z,2328.00
2022-08-11T12:16:31.802Z,2364.00
2022-08-11T12:16:59.977Z,2344.00
2022-08-11T12:17:59.968Z,2360.00
2022-08-11T12:18:59.963Z,2364.00
2022-08-11T12:19:59.946Z,2364.00
2022-08-11T12:20:59.930Z,2372.00
2022-08-11T12:22:00.783Z,2364.00
2022-08-11T12:22:59.912Z,2356.00
2022-08-11T12:24:04.071Z,2364.00
2022-08-11T12:24:59.885Z,2344.00
2022-08-11T12:26:23.418Z,2352.00
2022-08-11T12:27:15.801Z,2364.00
2022-08-11T12:27:59.850Z,2364.00
2022-08-11T12:28:59.836Z,2376.00
2022-08-11T12:29:59.822Z,2380.00
2022-08-11T12:30:59.812Z,2376.00
2022-08-11T12:31:59.800Z,2372.00
2022-08-11T12:32:59.788Z,2372.00
2022-08-11T12:33:59.777Z,2356.00
2022-08-11T12:34:59.770Z,2356.00
2022-08-11T12:36:00.893Z,2364.00
2022-08-11T12:36:59.742Z,2356.00